createdAt,value
2023-04-21T00:02:14.778Z,9.27
2023-04-21T00:05:27.454Z,9.27
2023-04-21T00:08:40.791Z,9.24
2023-04-21T00:11:52.785Z,9.28
2023-04-21T00:15:04.950Z,9.31
2023-04-21T00:18:18.141Z,9.33
2023-04-21T00:21:30.212Z,9.31
2023-04-21T00:24:42.307Z,9.29
2023-04-21T00:27:54.464Z,9.31
2023-04-21T00:31:06.572Z,9.31
2023-04-21T00:34:18.737Z,9.24
2023-04-21T00:37:31.308Z,9.16
2023-04-21T00:40:43.351Z,9.22
2023-04-21T00:44:14.308Z,9.26
2023-04-21T00:47:26.903Z,9.24
2023-04-21T00:50:40.084Z,9.25
2023-04-21T00:53:53.647Z,9.24
2023-04-21T00:57:08.037Z,9.22
2023-04-21T01:00:23.071Z,9.21
2023-04-21T01:03:35.642Z,9.16
2023-04-21T01:06:50.126Z,9.16
2023-04-21T01:10:02.169Z,9.17
2023-04-21T01:13:14.782Z,9.18
2023-04-21T01:16:28.172Z,9.17
2023-04-21T01:19:43.608Z,9.15
2023-04-21T01:22:56.019Z,9.15
2023-04-21T01:26:10.275Z,9.16
2023-04-21T01:29:22.718Z,9.14
2023-04-21T01:32:36.300Z,9.14
2023-04-21T01:35:49.162Z,9.11
2023-04-21T01:39:03.132Z,9.07
2023-04-21T01:42:15.463Z,9.13
2023-04-21T01:45:27.504Z,9.16
2023-04-21T01:48:40.421Z,9.08
2023-04-21T01:51:52.593Z,8.98
2023-04-21T01:55:06.267Z,9.02
2023-04-21T01:58:19.472Z,9.04
2023-04-21T02:01:31.725Z,9.05
2023-04-21T02:04:43.956Z,9.02
2023-04-21T02:07:56.249Z,8.97
2023-04-21T02:11:10.296Z,8.90
2023-04-21T02:14:24.305Z,8.78
2023-04-21T02:17:36.566Z,8.72
2023-04-21T02:20:48.900Z,8.68
2023-04-21T02:24:01.119Z,8.72
2023-04-21T02:27:13.376Z,8.77
2023-04-21T02:30:25.802Z,8.78
2023-04-21T02:33:38.008Z,8.70
2023-04-21T02:36:50.021Z,8.71
2023-04-21T02:40:01.942Z,8.76
2023-04-21T02:43:15.831Z,8.83
2023-04-21T02:46:27.802Z,8.86
2023-04-21T02:49:39.973Z,8.88
2023-04-21T02:52:52.050Z,8.90
2023-04-21T02:56:05.383Z,8.92
2023-04-21T02:59:18.400Z,8.92
2023-04-21T03:02:32.790Z,8.87
2023-04-21T03:05:44.984Z,8.83
2023-04-21T03:08:57.080Z,8.75
2023-04-21T03:12:11.431Z,8.72
2023-04-21T03:15:24.111Z,8.67
2023-04-21T03:18:36.691Z,8.61
2023-04-21T03:21:48.739Z,8.55
2023-04-21T03:25:00.811Z,8.33
2023-04-21T03:28:13.846Z,8.19
2023-04-21T03:31:25.948Z,8.04
2023-04-21T03:34:38.186Z,8.04
2023-04-21T03:37:50.453Z,7.99
2023-04-21T03:41:02.576Z,7.94
2023-04-21T03:44:14.682Z,7.91
2023-04-21T03:47:26.765Z,7.82
2023-04-21T03:50:38.980Z,7.77
2023-04-21T03:53:51.142Z,7.81
2023-04-21T03:57:03.370Z,7.92
2023-04-21T04:00:19.297Z,7.86
2023-04-21T04:03:31.652Z,7.68
2023-04-21T04:06:43.801Z,7.62
2023-04-21T04:09:55.787Z,7.65
2023-04-21T04:13:07.864Z,7.66
2023-04-21T04:16:20.049Z,7.66
2023-04-21T04:19:37.610Z,7.67
2023-04-21T04:22:49.664Z,7.71
2023-04-21T04:26:01.850Z,7.73
2023-04-21T04:29:16.559Z,7.75
2023-04-21T04:32:28.942Z,7.85
2023-04-21T04:35:41.249Z,7.99
2023-04-21T04:38:53.298Z,8.09
2023-04-21T04:42:05.571Z,8.07
2023-04-21T04:45:17.702Z,8.04
2023-04-21T04:48:29.804Z,8.07
2023-04-21T04:51:41.796Z,8.13
2023-04-21T04:54:53.918Z,8.17
2023-04-21T04:58:06.506Z,8.29
2023-04-21T05:01:24.852Z,8.45
2023-04-21T05:04:38.123Z,8.60
2023-04-21T05:07:50.492Z,8.73
2023-04-21T05:11:02.644Z,8.88
2023-04-21T05:14:14.911Z,9.01
2023-04-21T05:17:27.671Z,9.20
2023-04-21T05:20:39.983Z,9.36
2023-04-21T05:23:52.133Z,9.59
2023-04-21T05:27:04.341Z,9.80
2023-04-21T05:30:18.391Z,9.95
2023-04-21T05:33:32.125Z,10.17
2023-04-21T05:36:49.266Z,10.38
2023-04-21T05:39:59.723Z,10.54
2023-04-21T05:43:11.967Z,10.79
2023-04-21T05:46:24.179Z,11.05
2023-04-21T05:49:36.334Z,11.27
2023-04-21T05:52:48.612Z,11.38
2023-04-21T05:56:00.722Z,11.45
2023-04-21T05:59:13.049Z,11.68
2023-04-21T06:02:25.419Z,11.79
2023-04-21T06:05:38.320Z,12.10
2023-04-21T06:08:50.500Z,12.29
2023-04-21T06:12:02.859Z,12.66
2023-04-21T06:15:17.086Z,13.07
2023-04-21T06:18:30.838Z,13.76
2023-04-21T06:21:43.251Z,14.40
2023-04-21T06:24:57.853Z,14.98
2023-04-21T06:28:10.997Z,15.57
2023-04-21T06:31:23.347Z,15.28
2023-04-21T06:34:35.780Z,15.43
2023-04-21T06:42:39.121Z,16.37
2023-04-21T06:45:51.638Z,16.71
2023-04-21T06:49:04.884Z,16.84
2023-04-21T06:52:18.293Z,16.77
2023-04-21T06:55:31.275Z,16.99
2023-04-21T06:58:43.307Z,17.88
2023-04-21T07:01:55.428Z,18.39
2023-04-21T07:05:08.062Z,18.69
2023-04-21T07:08:20.105Z,18.39
2023-04-21T07:11:32.155Z,18.01
2023-04-21T07:14:44.450Z,18.25
2023-04-21T07:17:56.684Z,18.25
2023-04-21T07:21:08.971Z,18.72
2023-04-21T07:24:21.014Z,18.84
2023-04-21T07:27:33.275Z,19.04
2023-04-21T07:30:45.408Z,18.83
2023-04-21T07:33:57.702Z,19.54
2023-04-21T07:37:10.048Z,19.73
2023-04-21T07:40:22.416Z,20.36
2023-04-21T07:43:34.717Z,20.45
2023-04-21T07:46:47.090Z,20.65
2023-04-21T07:49:59.501Z,20.38
2023-04-21T07:53:12.027Z,20.08
2023-04-21T07:56:24.424Z,19.94
2023-04-21T07:59:36.651Z,19.87
2023-04-21T08:02:48.936Z,20.20
2023-04-21T08:06:01.648Z,20.24
2023-04-21T08:09:14.130Z,20.31
2023-04-21T08:12:26.293Z,19.98
2023-04-21T08:15:39.041Z,20.12
2023-04-21T08:18:51.259Z,20.20
2023-04-21T08:22:03.452Z,20.40
2023-04-21T08:25:16.463Z,20.59
2023-04-21T08:28:28.669Z,20.75
2023-04-21T08:31:40.852Z,21.01
2023-04-21T08:34:53.391Z,21.52
2023-04-21T08:38:05.611Z,21.34
2023-04-21T08:41:20.203Z,21.45
2023-04-21T08:44:32.567Z,21.01
2023-04-21T08:47:58.343Z,21.33
2023-04-21T08:51:32.125Z,21.77
2023-04-21T08:54:47.639Z,21.56
2023-04-21T08:57:59.859Z,21.90
2023-04-21T09:01:12.433Z,22.07
2023-04-21T09:04:25.569Z,21.74
2023-04-21T09:07:43.158Z,22.02
2023-04-21T09:10:56.618Z,22.73
2023-04-21T09:14:10.117Z,22.55
2023-04-21T09:17:26.013Z,22.67
2023-04-21T09:20:38.180Z,22.56
2023-04-21T09:23:52.961Z,22.44
2023-04-21T09:27:06.893Z,22.63
2023-04-21T09:30:22.872Z,22.41
2023-04-21T09:33:49.521Z,23.14
2023-04-21T09:36:53.689Z,23.50
2023-04-21T09:40:06.966Z,23.20
2023-04-21T09:43:19.014Z,23.21
2023-04-21T09:46:31.730Z,23.10
2023-04-21T09:49:46.877Z,23.69
2023-04-21T09:53:02.456Z,23.39
2023-04-21T09:56:18.476Z,23.84
2023-04-21T09:59:36.916Z,24.15
2023-04-21T10:02:54.363Z,23.32
2023-04-21T10:06:07.319Z,22.80
2023-04-21T10:09:22.280Z,23.40
2023-04-21T10:12:35.278Z,23.76
2023-04-21T10:15:48.182Z,23.67
2023-04-21T10:19:00.393Z,22.43
2023-04-21T10:22:14.156Z,22.60
2023-04-21T10:25:27.138Z,22.64
2023-04-21T10:28:51.179Z,23.34
2023-04-21T10:32:03.744Z,23.69
2023-04-21T10:35:20.057Z,23.46
2023-04-21T10:41:49.462Z,23.50
2023-04-21T10:45:14.794Z,23.76
2023-04-21T10:48:29.368Z,23.46
2023-04-21T10:52:16.696Z,23.33
2023-04-21T10:55:34.335Z,22.79
2023-04-21T10:58:47.429Z,22.00
2023-04-21T11:02:00.788Z,21.55
2023-04-21T11:05:15.377Z,22.20
2023-04-21T11:08:27.684Z,22.19
2023-04-21T11:11:40.684Z,22.52
2023-04-21T11:14:53.851Z,22.96
2023-04-21T11:18:06.162Z,22.77
2023-04-21T11:21:22.747Z,22.39
2023-04-21T11:24:35.247Z,22.14
2023-04-21T11:27:47.495Z,21.43
2023-04-21T11:30:59.660Z,20.84
2023-04-21T11:34:12.976Z,20.54
2023-04-21T11:37:32.110Z,20.26
2023-04-21T11:40:55.237Z,20.86
2023-04-21T11:44:08.183Z,21.11
2023-04-21T11:47:25.422Z,21.86
2023-04-21T11:50:42.012Z,21.88
2023-04-21T11:53:57.326Z,21.17
2023-04-21T11:57:09.661Z,20.80
2023-04-21T12:00:24.873Z,20.53
2023-04-21T12:03:39.113Z,20.25
2023-04-21T12:06:54.520Z,20.47
2023-04-21T12:10:11.864Z,20.74
2023-04-21T12:13:31.048Z,20.92
2023-04-21T12:16:44.903Z,21.18
2023-04-21T12:19:57.209Z,21.48
2023-04-21T12:23:09.176Z,21.86
2023-04-21T12:26:21.227Z,21.67
2023-04-21T12:29:35.253Z,21.49
2023-04-21T12:32:47.897Z,21.84
2023-04-21T12:36:00.239Z,22.03
2023-04-21T12:39:13.899Z,21.96
2023-04-21T12:42:25.967Z,22.23
2023-04-21T12:45:38.206Z,22.12
2023-04-21T12:48:52.616Z,21.63
2023-04-21T12:52:06.094Z,21.66
2023-04-21T12:55:18.950Z,20.91
2023-04-21T12:58:30.990Z,20.39
2023-04-21T13:01:44.312Z,20.72
2023-04-21T13:04:56.588Z,21.10
2023-04-21T13:08:08.926Z,21.38
2023-04-21T13:11:20.935Z,21.73
2023-04-21T13:14:33.745Z,21.67
2023-04-21T13:17:46.560Z,21.71
2023-04-21T13:20:58.587Z,21.39
2023-04-21T13:24:14.611Z,20.92
2023-04-21T13:27:26.391Z,21.06
2023-04-21T13:30:39.192Z,20.81
2023-04-21T13:33:53.536Z,20.88
2023-04-21T13:37:06.250Z,21.13
2023-04-21T13:40:19.789Z,21.07
2023-04-21T13:43:32.157Z,21.26
2023-04-21T13:46:44.688Z,20.82
2023-04-21T13:49:56.974Z,20.82
2023-04-21T13:53:09.126Z,20.86
2023-04-21T13:56:22.057Z,20.81
2023-04-21T13:59:34.486Z,20.78
2023-04-21T14:02:47.194Z,20.64
2023-04-21T14:05:59.587Z,20.66
2023-04-21T14:09:12.268Z,20.80
2023-04-21T14:12:26.408Z,20.70
2023-04-21T14:15:39.290Z,20.72
2023-04-21T14:18:51.153Z,20.88
2023-04-21T14:22:03.499Z,20.67
2023-04-21T14:25:16.741Z,20.59
2023-04-21T14:28:28.818Z,20.50
2023-04-21T14:31:41.116Z,20.39
2023-04-21T14:34:53.963Z,20.10
2023-04-21T14:38:06.779Z,20.19
2023-04-21T14:41:18.996Z,20.34
2023-04-21T14:44:30.883Z,20.03
2023-04-21T14:47:43.343Z,20.05
2023-04-21T14:50:55.812Z,19.93
2023-04-21T14:54:08.043Z,19.76
2023-04-21T14:57:22.076Z,19.53
2023-04-21T15:00:35.043Z,19.55
2023-04-21T15:03:47.896Z,19.55
2023-04-21T15:07:01.862Z,19.51
2023-04-21T15:10:17.361Z,19.41
2023-04-21T15:13:29.698Z,19.46
2023-04-21T15:16:41.824Z,19.42
2023-04-21T15:19:54.090Z,19.32
2023-04-21T15:23:06.461Z,19.28
2023-04-21T15:26:18.626Z,19.27
2023-04-21T15:29:30.661Z,19.29
2023-04-21T15:32:42.797Z,19.17
2023-04-21T15:35:54.965Z,19.11
2023-04-21T15:39:07.120Z,18.97
2023-04-21T15:42:19.653Z,18.89
2023-04-21T15:45:32.138Z,18.86
2023-04-21T15:48:44.505Z,18.85
2023-04-21T15:51:56.948Z,18.70
2023-04-21T15:55:10.538Z,18.63
2023-04-21T15:58:22.693Z,18.61
2023-04-21T16:01:35.043Z,18.38
2023-04-21T16:04:47.455Z,18.34
2023-04-21T16:07:59.785Z,18.28
2023-04-21T16:11:12.780Z,18.27
2023-04-21T16:14:25.878Z,18.20
2023-04-21T16:17:38.426Z,18.06
2023-04-21T16:20:51.017Z,18.05
2023-04-21T16:24:05.288Z,17.99
2023-04-21T16:27:17.644Z,17.93
2023-04-21T16:30:30.089Z,17.82
2023-04-21T16:33:42.084Z,17.79
2023-04-21T16:36:54.515Z,17.66
2023-04-21T16:40:07.896Z,17.54
2023-04-21T16:43:20.250Z,17.44
2023-04-21T16:46:32.580Z,17.35
2023-04-21T16:49:44.693Z,17.36
2023-04-21T16:52:56.887Z,17.36
2023-04-21T16:56:09.317Z,17.29
2023-04-21T16:59:24.009Z,17.25
2023-04-21T17:02:37.322Z,17.19
2023-04-21T17:05:50.257Z,17.10
2023-04-21T17:09:03.669Z,16.92
2023-04-21T17:12:15.640Z,16.87
2023-04-21T17:15:27.740Z,16.75
2023-04-21T17:18:40.664Z,16.63
2023-04-21T17:21:52.618Z,16.50
2023-04-21T17:25:04.702Z,16.36
2023-04-21T17:28:17.274Z,16.28
2023-04-21T17:31:29.677Z,16.15
2023-04-21T17:34:41.999Z,16.00
2023-04-21T17:37:54.256Z,15.84
2023-04-21T17:41:08.049Z,15.69
2023-04-21T17:44:20.107Z,15.49
2023-04-21T17:47:33.570Z,15.47
2023-04-21T17:50:45.901Z,15.43
2023-04-21T17:53:57.896Z,15.44
2023-04-21T17:57:11.722Z,15.45
2023-04-21T18:00:26.074Z,15.39
2023-04-21T18:03:40.237Z,15.28
2023-04-21T18:06:53.386Z,15.15
2023-04-21T18:10:05.451Z,15.11
2023-04-21T18:13:17.902Z,15.12
2023-04-21T18:16:30.166Z,15.07
2023-04-21T18:19:42.566Z,15.03
2023-04-21T18:22:56.780Z,14.97
2023-04-21T18:26:09.185Z,14.86
2023-04-21T18:29:22.124Z,14.71
2023-04-21T18:32:37.435Z,14.71
2023-04-21T18:35:50.166Z,14.69
2023-04-21T18:39:02.422Z,14.71
2023-04-21T18:42:14.652Z,14.57
2023-04-21T18:45:27.079Z,14.39
2023-04-21T18:48:39.990Z,14.28
2023-04-21T18:51:52.479Z,14.13
2023-04-21T18:55:04.620Z,14.00
2023-04-21T18:58:16.794Z,13.94
2023-04-21T19:01:29.533Z,13.87
2023-04-21T19:04:44.039Z,13.80
2023-04-21T19:07:56.382Z,13.68
2023-04-21T19:11:10.328Z,13.51
2023-04-21T19:14:22.835Z,13.37
2023-04-21T19:17:35.281Z,13.14
2023-04-21T19:20:48.087Z,12.92
2023-04-21T19:24:00.283Z,12.74
2023-04-21T19:27:12.783Z,12.61
2023-04-21T19:30:25.985Z,12.50
2023-04-21T19:33:38.249Z,12.42
2023-04-21T19:36:52.080Z,12.32
2023-04-21T19:40:04.514Z,12.25
2023-04-21T19:43:17.248Z,12.15
2023-04-21T19:46:29.969Z,12.16
2023-04-21T19:49:42.389Z,12.16
2023-04-21T19:52:54.858Z,12.02
2023-04-21T19:56:07.781Z,11.93
2023-04-21T19:59:20.099Z,11.85
2023-04-21T20:02:32.596Z,11.78
2023-04-21T20:05:45.922Z,11.72
2023-04-21T20:08:58.301Z,11.66
2023-04-21T20:12:10.800Z,11.62
2023-04-21T20:15:23.851Z,11.57
2023-04-21T20:18:36.495Z,11.49
2023-04-21T20:21:50.059Z,11.44
2023-04-21T20:25:02.340Z,11.34
2023-04-21T20:28:14.493Z,11.23
2023-04-21T20:31:27.231Z,11.16
2023-04-21T20:34:39.709Z,11.03
2023-04-21T20:37:53.757Z,10.94
2023-04-21T20:41:06.111Z,10.83
2023-04-21T20:44:20.705Z,10.71
2023-04-21T20:47:33.974Z,10.67
2023-04-21T20:50:48.482Z,10.66
2023-04-21T20:54:01.073Z,10.62
2023-04-21T20:57:13.334Z,10.59
2023-04-21T21:00:26.770Z,10.49
2023-04-21T21:03:39.468Z,10.35
2023-04-21T21:06:52.216Z,10.26
2023-04-21T21:10:05.154Z,10.18
2023-04-21T21:13:17.533Z,10.13
2023-04-21T21:16:30.129Z,10.12
2023-04-21T21:19:42.447Z,10.13
2023-04-21T21:22:55.166Z,10.11
2023-04-21T21:26:08.028Z,10.04
2023-04-21T21:29:20.499Z,9.98
2023-04-21T21:32:33.050Z,9.92
2023-04-21T21:35:45.525Z,9.83
2023-04-21T21:38:57.440Z,9.71
2023-04-21T21:42:09.972Z,9.59
2023-04-21T21:45:22.320Z,9.55
2023-04-21T21:48:34.692Z,9.47
2023-04-21T21:51:46.762Z,9.44
2023-04-21T21:54:58.976Z,9.46
2023-04-21T21:58:11.393Z,9.39
2023-04-21T22:01:23.520Z,9.39
2023-04-21T22:04:36.071Z,9.34
2023-04-21T22:07:50.967Z,9.18
2023-04-21T22:11:03.871Z,9.15
2023-04-21T22:14:22.523Z,9.11
2023-04-21T22:17:31.075Z,8.98
2023-04-21T22:20:43.544Z,8.92
2023-04-21T22:23:56.131Z,8.88
2023-04-21T22:27:08.440Z,8.91
2023-04-21T22:30:21.284Z,9.01
2023-04-21T22:33:33.439Z,8.92
2023-04-21T22:36:45.460Z,8.97
2023-04-21T22:39:57.864Z,9.10
2023-04-21T22:43:10.371Z,9.05
2023-04-21T22:46:22.905Z,8.90
2023-04-21T22:49:35.170Z,8.85
2023-04-21T22:52:47.487Z,8.84
2023-04-21T22:56:00.154Z,8.78
2023-04-21T22:59:12.464Z,8.78
2023-04-21T23:02:24.874Z,8.72
2023-04-21T23:05:37.567Z,8.93
2023-04-21T23:08:49.561Z,8.98
2023-04-21T23:12:01.672Z,8.86
2023-04-21T23:15:16.028Z,8.78
2023-04-21T23:18:28.028Z,8.77
2023-04-21T23:21:40.372Z,8.71
2023-04-21T23:24:52.897Z,8.67
2023-04-21T23:28:05.049Z,8.52
2023-04-21T23:31:17.040Z,8.55
2023-04-21T23:34:29.279Z,8.55
2023-04-21T23:37:41.788Z,8.33
2023-04-21T23:40:53.767Z,8.18
2023-04-21T23:44:06.103Z,8.22
2023-04-21T23:47:18.176Z,8.19
2023-04-21T23:50:30.451Z,8.11
2023-04-21T23:53:42.674Z,8.04
2023-04-21T23:56:54.815Z,8.12
